createdAt,value
2017-05-01T00:01:09.839Z,12
2017-05-01T00:02:22.155Z,12
2017-05-01T00:03:34.992Z,12
2017-05-01T00:04:47.789Z,12
2017-05-01T00:06:00.606Z,12
2017-05-01T00:07:12.939Z,12
2017-05-01T00:08:25.509Z,12
2017-05-01T00:09:38.316Z,12
2017-05-01T00:10:51.163Z,12
2017-05-01T00:12:03.985Z,12
2017-05-01T00:13:30.366Z,4
2017-05-01T00:14:43.156Z,12
2017-05-01T00:15:55.956Z,8
2017-05-01T00:17:08.747Z,8
2017-05-01T00:18:21.531Z,8
2017-05-01T00:19:34.313Z,4
2017-05-01T00:20:47.303Z,12
2017-05-01T00:22:00.088Z,12
2017-05-01T00:23:12.873Z,12
2017-05-01T00:24:25.174Z,12
2017-05-01T00:25:37.962Z,8
2017-05-01T00:26:50.749Z,12
2017-05-01T00:28:03.533Z,12
2017-05-01T00:29:16.333Z,4
2017-05-01T00:30:28.632Z,12
2017-05-01T00:31:41.417Z,12
2017-05-01T00:32:54.205Z,12
2017-05-01T00:34:06.987Z,12
2017-05-01T00:35:19.545Z,12
2017-05-01T00:36:32.333Z,4
2017-05-01T00:37:45.116Z,12
2017-05-01T00:38:57.908Z,12
2017-05-01T00:40:10.694Z,12
2017-05-01T00:41:23.511Z,12
2017-05-01T00:42:36.297Z,12
2017-05-01T00:43:49.080Z,12
2017-05-01T00:45:01.874Z,12
2017-05-01T00:46:14.478Z,8
2017-05-01T00:47:27.257Z,4
2017-05-01T00:48:40.039Z,4
2017-05-01T00:49:52.822Z,4
2017-05-01T00:51:05.607Z,12
2017-05-01T00:52:17.909Z,16
2017-05-01T00:53:30.694Z,12
2017-05-01T00:54:43.483Z,12
2017-05-01T00:55:56.267Z,12
2017-05-01T00:57:09.048Z,12
2017-05-01T00:58:21.354Z,12
2017-05-01T00:59:34.144Z,12
2017-05-01T01:00:46.944Z,12
2017-05-01T01:01:59.981Z,12
2017-05-01T01:03:12.766Z,12
2017-05-01T01:04:25.569Z,12
2017-05-01T01:05:38.357Z,12
2017-05-01T01:06:51.146Z,12
2017-05-01T01:08:03.937Z,12
2017-05-01T01:09:16.253Z,12
2017-05-01T01:10:29.038Z,12
2017-05-01T01:11:41.827Z,12
2017-05-01T01:12:54.872Z,12
2017-05-01T01:14:07.667Z,12
2017-05-01T01:15:20.454Z,12
2017-05-01T01:16:33.244Z,12
2017-05-01T01:17:46.043Z,12
2017-05-01T01:18:58.842Z,12
2017-05-01T01:20:11.648Z,12
2017-05-01T01:21:24.458Z,12
2017-05-01T01:22:37.241Z,12
2017-05-01T01:23:50.032Z,12
2017-05-01T01:25:02.339Z,12
2017-05-01T01:26:15.124Z,12
2017-05-01T01:27:27.916Z,12
2017-05-01T01:28:40.708Z,12
2017-05-01T01:29:53.751Z,16
2017-05-01T01:31:06.541Z,12
2017-05-01T01:32:19.344Z,12
2017-05-01T01:33:32.134Z,12
2017-05-01T01:34:47.736Z,12
2017-05-01T01:36:00.536Z,12
2017-05-01T01:37:13.338Z,12
2017-05-01T01:38:25.662Z,4
2017-05-01T01:39:38.455Z,4
2017-05-01T01:40:51.260Z,16
2017-05-01T01:42:04.057Z,12
2017-05-01T01:43:16.853Z,12
2017-05-01T01:44:29.649Z,12
2017-05-01T01:45:42.443Z,12
2017-05-01T01:46:55.236Z,12
2017-05-01T01:48:07.559Z,12
2017-05-01T01:49:19.867Z,16
2017-05-01T01:50:32.671Z,16
2017-05-01T01:51:45.705Z,12
2017-05-01T01:52:58.498Z,12
2017-05-01T01:54:10.815Z,12
2017-05-01T01:55:23.608Z,12
2017-05-01T01:56:36.667Z,12
2017-05-01T01:57:49.476Z,12
2017-05-01T01:59:03.115Z,12
2017-05-01T02:00:15.916Z,4
2017-05-01T02:01:29.018Z,12
2017-05-01T02:02:41.830Z,12
2017-05-01T02:03:54.636Z,12
2017-05-01T02:05:07.453Z,12
2017-05-01T02:06:20.266Z,12
2017-05-01T02:07:32.615Z,12
2017-05-01T02:08:45.441Z,12
2017-05-01T02:09:58.268Z,12
2017-05-01T02:11:11.094Z,4
2017-05-01T02:12:23.924Z,12
2017-05-01T02:13:37.007Z,12
2017-05-01T02:14:49.838Z,12
2017-05-01T02:16:02.681Z,16
2017-05-01T02:17:15.498Z,12
2017-05-01T02:18:28.560Z,12
2017-05-01T02:19:41.396Z,12
2017-05-01T02:20:54.197Z,12
2017-05-01T02:22:06.035Z,12
2017-05-01T02:23:18.851Z,16
2017-05-01T02:24:31.682Z,16
2017-05-01T02:25:44.491Z,16
2017-05-01T02:26:57.313Z,12
2017-05-01T02:28:10.113Z,12
2017-05-01T02:29:22.920Z,12
2017-05-01T02:30:35.729Z,12
2017-05-01T02:31:48.525Z,12
2017-05-01T02:33:01.322Z,12
2017-05-01T02:34:14.120Z,12
2017-05-01T02:35:26.908Z,12
2017-05-01T02:36:39.705Z,12
2017-05-01T02:37:52.498Z,16
2017-05-01T02:39:05.301Z,12
2017-05-01T02:40:17.619Z,12
2017-05-01T02:41:30.419Z,4
2017-05-01T02:42:43.209Z,4
2017-05-01T02:43:56.006Z,12
2017-05-01T02:45:08.817Z,12
2017-05-01T02:46:20.897Z,12
2017-05-01T02:47:33.700Z,12
2017-05-01T02:48:46.511Z,12
2017-05-01T02:49:59.321Z,12
2017-05-01T02:51:12.123Z,12
2017-05-01T02:52:24.933Z,12
2017-05-01T02:53:37.736Z,12
2017-05-01T02:54:50.535Z,12
2017-05-01T02:56:03.336Z,16
2017-05-01T02:57:15.655Z,16
2017-05-01T02:58:28.460Z,16
2017-05-01T02:59:40.776Z,12
2017-05-01T03:00:53.594Z,12
2017-05-01T03:02:05.907Z,4
2017-05-01T03:03:18.709Z,4
2017-05-01T03:04:31.497Z,4
2017-05-01T03:05:44.305Z,16
2017-05-01T03:06:56.629Z,16
2017-05-01T03:08:09.431Z,16
2017-05-01T03:09:22.251Z,12
2017-05-01T03:10:35.059Z,12
2017-05-01T03:11:47.864Z,12
2017-05-01T03:13:00.921Z,12
2017-05-01T03:14:13.783Z,12
2017-05-01T03:15:26.587Z,12
2017-05-01T03:16:39.394Z,12
2017-05-01T03:17:52.218Z,12
2017-05-01T03:19:04.857Z,12
2017-05-01T03:20:17.184Z,12
2017-05-01T03:21:29.994Z,12
2017-05-01T03:22:42.319Z,12
2017-05-01T03:23:55.139Z,12
2017-05-01T03:25:08.001Z,12
2017-05-01T03:26:20.362Z,12
2017-05-01T03:27:32.688Z,12
2017-05-01T03:28:45.014Z,12
2017-05-01T03:29:58.077Z,12
2017-05-01T03:31:10.902Z,16
2017-05-01T03:32:23.701Z,12
2017-05-01T03:33:36.508Z,12
2017-05-01T03:34:49.338Z,12
2017-05-01T03:36:02.143Z,12
2017-05-01T03:37:14.954Z,12
2017-05-01T03:38:27.796Z,12
2017-05-01T03:39:40.621Z,12
2017-05-01T03:40:53.443Z,12
2017-05-01T03:42:06.271Z,8
2017-05-01T03:43:19.079Z,8
2017-05-01T03:44:31.886Z,4
2017-05-01T03:45:44.493Z,4
2017-05-01T03:46:57.297Z,16
2017-05-01T03:48:10.093Z,16
2017-05-01T03:49:22.908Z,12
2017-05-01T03:50:35.704Z,12
2017-05-01T03:51:48.497Z,12
2017-05-01T03:53:00.814Z,12
2017-05-01T03:54:13.618Z,12
2017-05-01T03:55:25.447Z,12
2017-05-01T03:56:38.500Z,12
2017-05-01T03:57:51.337Z,12
2017-05-01T03:59:04.145Z,12
2017-05-01T04:00:16.462Z,12
2017-05-01T04:01:29.265Z,12
2017-05-01T04:02:56.133Z,12
2017-05-01T04:04:08.450Z,12
2017-05-01T04:05:21.251Z,12
2017-05-01T04:06:34.348Z,12
2017-05-01T04:07:47.146Z,12
2017-05-01T04:08:59.459Z,12
2017-05-01T04:10:12.248Z,4
2017-05-01T04:11:24.574Z,4
2017-05-01T04:12:37.367Z,4
2017-05-01T04:13:49.682Z,12
2017-05-01T04:15:02.517Z,12
2017-05-01T04:16:15.313Z,12
2017-05-01T04:17:28.110Z,12
2017-05-01T04:18:41.157Z,12
2017-05-01T04:19:53.958Z,12
2017-05-01T04:21:06.768Z,12
2017-05-01T04:22:19.559Z,12
2017-05-01T04:23:32.655Z,8
2017-05-01T04:24:45.446Z,4
2017-05-01T04:25:58.236Z,4
2017-05-01T04:27:10.544Z,4
2017-05-01T04:28:23.336Z,12
2017-05-01T04:29:36.380Z,12
2017-05-01T04:30:49.173Z,12
2017-05-01T04:32:01.962Z,12
2017-05-01T04:33:14.761Z,12
2017-05-01T04:34:27.809Z,12
2017-05-01T04:35:40.601Z,12
2017-05-01T04:36:52.924Z,16
2017-05-01T04:38:05.718Z,12
2017-05-01T04:39:18.514Z,12
2017-05-01T04:40:31.333Z,12
2017-05-01T04:41:44.159Z,12
2017-05-01T04:42:56.949Z,12
2017-05-01T04:44:09.744Z,4
2017-05-01T04:45:22.839Z,4
2017-05-01T04:46:35.622Z,12
2017-05-01T04:47:47.928Z,16
2017-05-01T04:49:00.720Z,12
2017-05-01T04:50:13.510Z,12
2017-05-01T04:51:25.819Z,12
2017-05-01T04:52:38.627Z,12
2017-05-01T04:53:51.424Z,12
2017-05-01T04:55:04.225Z,12
2017-05-01T04:56:17.308Z,12
2017-05-01T04:57:29.610Z,4
2017-05-01T04:58:42.400Z,4
2017-05-01T04:59:55.195Z,4
2017-05-01T05:01:07.996Z,4
2017-05-01T05:02:20.599Z,16
2017-05-01T05:03:32.910Z,16
2017-05-01T05:04:45.228Z,12
2017-05-01T05:05:58.027Z,12
2017-05-01T05:07:11.070Z,12
2017-05-01T05:08:23.860Z,12
2017-05-01T05:09:36.658Z,12
2017-05-01T05:10:49.455Z,12
2017-05-01T05:12:02.247Z,12
2017-05-01T05:13:15.331Z,8
2017-05-01T05:14:28.133Z,12
2017-05-01T05:15:40.924Z,12
2017-05-01T05:16:53.239Z,12
2017-05-01T05:18:06.042Z,12
2017-05-01T05:19:18.842Z,12
2017-05-01T05:20:31.637Z,12
2017-05-01T05:21:44.437Z,4
2017-05-01T05:22:57.224Z,4
2017-05-01T05:24:10.013Z,4
2017-05-01T05:25:22.314Z,8
2017-05-01T05:26:34.617Z,12
2017-05-01T05:27:47.397Z,12
2017-05-01T05:29:00.483Z,12
2017-05-01T05:30:13.264Z,16
2017-05-01T05:31:25.568Z,16
2017-05-01T05:32:38.355Z,12
2017-05-01T05:33:51.144Z,12
2017-05-01T05:35:04.184Z,12
2017-05-01T05:36:16.968Z,12
2017-05-01T05:37:29.801Z,12
2017-05-01T05:38:42.587Z,12
2017-05-01T05:39:55.621Z,4
2017-05-01T05:41:08.404Z,4
2017-05-01T05:42:21.186Z,4
2017-05-01T05:43:33.976Z,12
2017-05-01T05:44:46.797Z,16
2017-05-01T05:45:59.580Z,12
2017-05-01T05:47:12.362Z,12
2017-05-01T05:48:24.661Z,12
2017-05-01T05:49:37.445Z,12
2017-05-01T05:50:50.226Z,12
2017-05-01T05:52:03.009Z,12
2017-05-01T05:53:15.788Z,12
2017-05-01T05:54:28.571Z,12
2017-05-01T05:55:41.355Z,12
2017-05-01T05:56:53.651Z,12
2017-05-01T05:58:06.433Z,12
2017-05-01T05:59:19.216Z,12
2017-05-01T06:00:32.006Z,12
2017-05-01T06:01:45.087Z,12
2017-05-01T06:02:57.435Z,12
2017-05-01T06:04:10.221Z,12
2017-05-01T06:05:23.023Z,12
2017-05-01T06:06:35.846Z,12
2017-05-01T06:07:48.640Z,12
2017-05-01T06:09:01.435Z,12
2017-05-01T06:10:14.223Z,12
2017-05-01T06:11:27.013Z,12
2017-05-01T06:12:40.113Z,12
2017-05-01T06:13:52.915Z,12
2017-05-01T06:15:05.706Z,12
2017-05-01T06:16:18.013Z,12
2017-05-01T06:17:30.806Z,12
2017-05-01T06:18:43.849Z,12
2017-05-01T06:19:56.638Z,12
2017-05-01T06:21:09.428Z,12
2017-05-01T06:22:21.737Z,12
2017-05-01T06:23:34.533Z,12
2017-05-01T06:24:47.329Z,12
2017-05-01T06:25:59.642Z,12
2017-05-01T06:27:11.955Z,12
2017-05-01T06:28:24.751Z,12
2017-05-01T06:29:37.540Z,12
2017-05-01T06:30:50.325Z,12
2017-05-01T06:32:03.114Z,12
2017-05-01T06:33:15.916Z,12
2017-05-01T06:34:28.710Z,12
2017-05-01T06:35:41.498Z,12
2017-05-01T06:36:54.304Z,12
2017-05-01T06:38:07.105Z,12
2017-05-01T06:39:19.915Z,12
2017-05-01T06:40:33.007Z,12
2017-05-01T06:41:45.805Z,12
2017-05-01T06:42:58.601Z,12
2017-05-01T06:44:11.397Z,12
2017-05-01T06:45:24.436Z,12
2017-05-01T06:46:37.221Z,12
2017-05-01T06:47:50.011Z,12
2017-05-01T06:49:02.814Z,12
2017-05-01T06:50:15.136Z,12
2017-05-01T06:51:27.927Z,12
2017-05-01T06:52:40.717Z,12
2017-05-01T06:53:53.019Z,12
2017-05-01T06:55:05.805Z,12
2017-05-01T06:56:18.105Z,12
2017-05-01T06:57:30.895Z,12
2017-05-01T06:58:43.681Z,12
2017-05-01T06:59:56.485Z,12
2017-05-01T07:01:09.264Z,12
2017-05-01T07:02:21.866Z,12
2017-05-01T07:03:34.648Z,12
2017-05-01T07:04:47.433Z,12
2017-05-01T07:06:00.216Z,12
2017-05-01T07:07:13.300Z,12
2017-05-01T07:08:26.091Z,12
2017-05-01T07:09:38.871Z,12
2017-05-01T07:10:51.651Z,12
2017-05-01T07:12:04.432Z,12
2017-05-01T07:13:17.513Z,12
2017-05-01T07:14:30.297Z,12
2017-05-01T07:15:43.093Z,12
2017-05-01T07:16:55.391Z,12
2017-05-01T07:18:07.693Z,12
2017-05-01T07:19:20.476Z,12
2017-05-01T07:20:33.264Z,12
2017-05-01T07:21:46.053Z,12
2017-05-01T07:22:58.355Z,12
2017-05-01T07:24:11.388Z,12
2017-05-01T07:25:24.188Z,12
2017-05-01T07:26:36.977Z,12
2017-05-01T07:27:49.758Z,12
2017-05-01T07:29:02.791Z,12
2017-05-01T07:30:15.090Z,12
2017-05-01T07:31:27.872Z,12
2017-05-01T07:32:40.650Z,12
2017-05-01T07:33:53.433Z,12
2017-05-01T07:35:06.462Z,12
2017-05-01T07:36:18.759Z,12
2017-05-01T07:37:31.537Z,12
2017-05-01T07:38:44.322Z,12
2017-05-01T07:39:57.118Z,12
2017-05-01T07:41:09.923Z,12
2017-05-01T07:42:22.722Z,12
2017-05-01T07:43:35.508Z,12
2017-05-01T07:44:48.300Z,12
2017-05-01T07:46:00.862Z,12
2017-05-01T07:47:13.644Z,12
2017-05-01T07:48:25.958Z,12
2017-05-01T07:49:38.744Z,12
2017-05-01T07:50:51.540Z,12
2017-05-01T07:52:04.327Z,12
2017-05-01T07:53:16.635Z,12
2017-05-01T07:54:29.432Z,12
2017-05-01T07:55:42.227Z,12
2017-05-01T07:56:55.022Z,12
2017-05-01T07:58:07.816Z,12
2017-05-01T07:59:20.128Z,12
2017-05-01T08:00:32.923Z,12
2017-05-01T08:01:45.479Z,12
2017-05-01T08:02:57.788Z,12
2017-05-01T08:04:10.578Z,12
2017-05-01T08:05:23.370Z,12
2017-05-01T08:06:36.162Z,12
2017-05-01T08:07:49.258Z,12
2017-05-01T08:09:01.563Z,12
2017-05-01T08:10:14.355Z,12
2017-05-01T08:11:27.174Z,12
2017-05-01T08:12:39.974Z,12
2017-05-01T08:13:52.281Z,12
2017-05-01T08:15:05.070Z,12
2017-05-01T08:16:17.386Z,12
2017-05-01T08:17:30.176Z,12
2017-05-01T08:18:42.475Z,12
2017-05-01T08:19:53.813Z,12
2017-05-01T08:21:06.605Z,12
2017-05-01T08:22:18.954Z,12
2017-05-01T08:23:32.041Z,12
2017-05-01T08:24:44.831Z,12
2017-05-01T08:25:57.612Z,12
2017-05-01T08:27:10.397Z,12
2017-05-01T08:28:23.182Z,12
2017-05-01T08:29:36.213Z,12
2017-05-01T08:30:49.004Z,12
2017-05-01T08:32:01.785Z,12
2017-05-01T08:33:14.566Z,12
2017-05-01T08:34:27.353Z,12
2017-05-01T08:35:40.135Z,12
2017-05-01T08:36:52.435Z,12
2017-05-01T08:38:04.740Z,12
2017-05-01T08:39:17.530Z,12
2017-05-01T08:40:30.612Z,12
2017-05-01T08:41:43.402Z,12
2017-05-01T08:42:56.184Z,12
2017-05-01T08:44:08.971Z,12
2017-05-01T08:45:21.527Z,12
2017-05-01T08:46:34.310Z,12
2017-05-01T08:47:47.095Z,12
2017-05-01T08:48:59.884Z,12
2017-05-01T08:50:12.190Z,12
2017-05-01T08:51:24.968Z,12
2017-05-01T08:52:37.752Z,12
2017-05-01T08:53:50.537Z,12
2017-05-01T08:55:03.316Z,12
2017-05-01T08:56:15.382Z,12
2017-05-01T08:57:28.163Z,12
2017-05-01T08:58:40.947Z,12
2017-05-01T08:59:52.767Z,12
2017-05-01T09:01:05.554Z,12
2017-05-01T09:02:18.340Z,12
2017-05-01T09:03:31.117Z,12
2017-05-01T09:04:43.415Z,12
2017-05-01T09:05:56.233Z,12
2017-05-01T09:07:09.021Z,12
2017-05-01T09:08:21.331Z,12
2017-05-01T09:09:34.123Z,12
2017-05-01T09:10:46.432Z,12
2017-05-01T09:11:58.746Z,12
2017-05-01T09:13:11.543Z,12
2017-05-01T09:14:23.854Z,12
2017-05-01T09:15:36.657Z,16
2017-05-01T09:16:49.443Z,12
2017-05-01T09:18:02.055Z,16
2017-05-01T09:19:14.849Z,16
2017-05-01T09:20:27.151Z,12
2017-05-01T09:21:39.941Z,16
2017-05-01T09:22:52.766Z,16
2017-05-01T09:24:05.571Z,20
2017-05-01T09:25:18.359Z,20
2017-05-01T09:26:30.680Z,12
2017-05-01T09:27:43.473Z,12
2017-05-01T09:28:56.515Z,16
2017-05-01T09:30:08.837Z,20
2017-05-01T09:31:21.629Z,20
2017-05-01T09:32:34.415Z,24
2017-05-01T09:33:46.736Z,24
2017-05-01T09:34:59.824Z,28
2017-05-01T09:36:12.129Z,32
2017-05-01T09:37:24.920Z,36
2017-05-01T09:38:37.230Z,36
2017-05-01T09:39:49.537Z,40
2017-05-01T09:41:02.319Z,44
2017-05-01T09:42:14.624Z,48
2017-05-01T09:43:27.467Z,52
2017-05-01T09:44:40.266Z,56
2017-05-01T09:45:53.068Z,60
2017-05-01T09:47:05.869Z,64
2017-05-01T09:48:18.671Z,64
2017-05-01T09:49:31.467Z,68
2017-05-01T09:50:44.074Z,72
2017-05-01T09:51:56.378Z,76
2017-05-01T09:53:08.686Z,80
2017-05-01T09:54:21.479Z,80
2017-05-01T09:55:34.278Z,80
2017-05-01T09:56:46.586Z,84
2017-05-01T09:57:59.379Z,88
2017-05-01T09:59:12.172Z,88
2017-05-01T10:00:24.488Z,88
2017-05-01T10:01:37.527Z,92
2017-05-01T10:02:50.319Z,100
2017-05-01T10:04:03.122Z,100
2017-05-01T10:05:15.434Z,100
2017-05-01T10:06:28.221Z,100
2017-05-01T10:07:41.006Z,104
2017-05-01T10:08:53.799Z,108
2017-05-01T10:10:06.109Z,108
2017-05-01T10:11:18.414Z,112
2017-05-01T10:12:31.454Z,112
2017-05-01T10:13:43.815Z,112
2017-05-01T10:14:56.132Z,116
2017-05-01T10:16:08.943Z,116
2017-05-01T10:17:21.734Z,120
2017-05-01T10:18:34.813Z,124
2017-05-01T10:19:47.605Z,124
2017-05-01T10:21:00.396Z,124
2017-05-01T10:22:12.731Z,124
2017-05-01T10:23:25.517Z,124
2017-05-01T10:24:38.304Z,128
2017-05-01T10:25:51.100Z,132
2017-05-01T10:27:03.886Z,132
2017-05-01T10:28:15.734Z,136
2017-05-01T10:29:28.353Z,140
2017-05-01T10:30:40.663Z,144
2017-05-01T10:31:53.456Z,144
2017-05-01T10:33:04.801Z,144
2017-05-01T10:34:17.109Z,148
2017-05-01T10:35:29.905Z,152
2017-05-01T10:36:42.211Z,160
2017-05-01T10:37:54.999Z,164
2017-05-01T10:39:07.304Z,172
2017-05-01T10:40:19.866Z,184
2017-05-01T10:41:32.668Z,196
2017-05-01T10:42:44.502Z,212
2017-05-01T10:43:57.296Z,236
2017-05-01T10:45:10.392Z,208
2017-05-01T10:46:22.702Z,216
2017-05-01T10:47:35.494Z,204
2017-05-01T10:48:47.803Z,204
2017-05-01T10:50:00.594Z,204
2017-05-01T10:51:13.161Z,200
2017-05-01T10:52:25.469Z,216
2017-05-01T10:53:38.259Z,204
2017-05-01T10:54:51.050Z,196
2017-05-01T10:56:04.151Z,192
2017-05-01T10:57:15.982Z,220
2017-05-01T10:58:28.770Z,236
2017-05-01T10:59:40.598Z,232
2017-05-01T11:00:52.908Z,280
2017-05-01T11:02:05.704Z,272
2017-05-01T11:03:17.544Z,248
2017-05-01T11:04:29.853Z,244
2017-05-01T11:05:42.644Z,240
2017-05-01T11:06:55.740Z,264
2017-05-01T11:08:08.047Z,264
2017-05-01T11:09:20.844Z,292
2017-05-01T11:10:32.669Z,272
2017-05-01T11:11:44.981Z,252
2017-05-01T11:12:58.029Z,256
2017-05-01T11:14:10.338Z,260
2017-05-01T11:15:23.131Z,264
2017-05-01T11:16:35.927Z,292
2017-05-01T11:17:48.491Z,292
2017-05-01T11:19:01.279Z,272
2017-05-01T11:20:13.108Z,280
2017-05-01T11:21:25.898Z,220
2017-05-01T11:22:38.212Z,300
2017-05-01T11:23:50.997Z,292
2017-05-01T11:25:03.795Z,280
2017-05-01T11:26:16.581Z,276
2017-05-01T11:27:28.894Z,324
2017-05-01T11:28:41.684Z,304
2017-05-01T11:29:54.466Z,256
2017-05-01T11:31:06.780Z,548
2017-05-01T11:32:19.577Z,508
2017-05-01T11:33:32.370Z,860
2017-05-01T11:34:45.413Z,1088
2017-05-01T11:35:58.198Z,976
2017-05-01T11:37:10.023Z,1320
2017-05-01T11:38:22.820Z,1304
2017-05-01T11:39:35.610Z,1312
2017-05-01T11:40:47.914Z,1356
2017-05-01T11:42:00.712Z,1408
2017-05-01T11:43:12.544Z,1392
2017-05-01T11:44:24.851Z,1472
2017-05-01T11:45:37.192Z,1492
2017-05-01T11:46:49.499Z,1520
2017-05-01T11:48:02.292Z,1464
2017-05-01T11:49:15.084Z,772
2017-05-01T11:50:28.180Z,1608
2017-05-01T11:51:40.964Z,1604
2017-05-01T11:52:53.759Z,1628
2017-05-01T11:54:06.074Z,1568
2017-05-01T11:55:18.375Z,1596
2017-05-01T11:56:31.404Z,1680
2017-05-01T11:57:44.235Z,1656
2017-05-01T11:58:57.039Z,1696
2017-05-01T12:00:09.346Z,1724
2017-05-01T12:01:22.134Z,1740
2017-05-01T12:02:34.934Z,1772
2017-05-01T12:03:47.251Z,1824
2017-05-01T12:05:00.052Z,1840
2017-05-01T12:06:12.843Z,1800
2017-05-01T12:07:25.636Z,1828
2017-05-01T12:08:38.433Z,1856
2017-05-01T12:09:51.232Z,1784
2017-05-01T12:11:04.024Z,1852
2017-05-01T12:12:16.816Z,1900
2017-05-01T12:13:29.166Z,1896
2017-05-01T12:14:41.962Z,1940
2017-05-01T12:15:54.755Z,1988
2017-05-01T12:17:06.592Z,1972
2017-05-01T12:18:19.393Z,1964
2017-05-01T12:19:32.193Z,1944
2017-05-01T12:20:45.015Z,1968
2017-05-01T12:21:57.801Z,1992
2017-05-01T12:23:10.113Z,1984
2017-05-01T12:24:22.915Z,1988
2017-05-01T12:25:35.222Z,1976
2017-05-01T12:26:48.007Z,1980
2017-05-01T12:28:00.797Z,1960
2017-05-01T12:29:13.361Z,1688
2017-05-01T12:30:26.163Z,1928
2017-05-01T12:31:38.949Z,1972
2017-05-01T12:32:51.746Z,1980
2017-05-01T12:34:04.104Z,1948
2017-05-01T12:35:16.416Z,1948
2017-05-01T12:36:29.209Z,1992
2017-05-01T12:37:42.004Z,1976
2017-05-01T12:38:54.802Z,1956
2017-05-01T12:40:07.599Z,1952
2017-05-01T12:41:19.914Z,1968
2017-05-01T12:42:32.701Z,1872
2017-05-01T12:43:45.497Z,1948
2017-05-01T12:44:58.553Z,1888
2017-05-01T12:46:10.866Z,1892
2017-05-01T12:47:23.656Z,1912
2017-05-01T12:48:36.456Z,1888
2017-05-01T12:49:49.260Z,1896
2017-05-01T12:51:02.063Z,1888
2017-05-01T12:52:14.872Z,1888
2017-05-01T12:53:27.181Z,1888
2017-05-01T12:54:39.504Z,1908
2017-05-01T12:55:52.601Z,1888
2017-05-01T12:57:04.909Z,1900
2017-05-01T12:58:17.223Z,1868
2017-05-01T12:59:29.536Z,1864
2017-05-01T13:00:42.334Z,1908
2017-05-01T13:01:55.136Z,1884
2017-05-01T13:03:07.490Z,1884
2017-05-01T13:04:20.291Z,1880
2017-05-01T13:05:32.603Z,1864
2017-05-01T13:06:45.697Z,1864
2017-05-01T13:07:58.024Z,1896
2017-05-01T13:09:10.345Z,1872
2017-05-01T13:10:22.654Z,1864
2017-05-01T13:11:34.971Z,1856
2017-05-01T13:12:48.028Z,1884
2017-05-01T13:14:00.832Z,1864
2017-05-01T13:15:13.155Z,1868
2017-05-01T13:16:25.944Z,1860
2017-05-01T13:17:38.996Z,1868
2017-05-01T13:18:51.804Z,1868
2017-05-01T13:20:04.602Z,1872
2017-05-01T13:21:16.424Z,1876
2017-05-01T13:22:29.219Z,1852
2017-05-01T13:23:41.545Z,1864
2017-05-01T13:24:54.350Z,1868
2017-05-01T13:26:07.146Z,1832
2017-05-01T13:27:19.489Z,1832
2017-05-01T13:28:32.293Z,1812
2017-05-01T13:29:45.106Z,1800
2017-05-01T13:30:57.425Z,1804
2017-05-01T13:32:10.230Z,1788
2017-05-01T13:33:22.556Z,1812
2017-05-01T13:34:35.362Z,1816
2017-05-01T13:35:48.163Z,1720
2017-05-01T13:37:00.978Z,1808
2017-05-01T13:38:13.786Z,1796
2017-05-01T13:39:26.116Z,1800
2017-05-01T13:40:38.921Z,1812
2017-05-01T13:41:51.720Z,1780
2017-05-01T13:43:04.545Z,1796
2017-05-01T13:44:17.341Z,1788
2017-05-01T13:45:30.168Z,1776
2017-05-01T13:46:42.971Z,1800
2017-05-01T13:47:55.775Z,1792
2017-05-01T13:49:08.587Z,1800
2017-05-01T13:50:20.897Z,1772
2017-05-01T13:51:33.694Z,1768
2017-05-01T13:52:46.488Z,1780
2017-05-01T13:53:58.802Z,1764
2017-05-01T13:55:10.161Z,1784
2017-05-01T13:56:23.203Z,1788
2017-05-01T13:57:35.991Z,1780
2017-05-01T13:58:48.776Z,1768
2017-05-01T14:00:01.569Z,1772
2017-05-01T14:01:13.415Z,1768
2017-05-01T14:02:25.733Z,1768
2017-05-01T14:03:38.057Z,1760
2017-05-01T14:04:50.850Z,1772
2017-05-01T14:06:03.642Z,1764
2017-05-01T14:07:16.196Z,1772
2017-05-01T14:08:28.986Z,1768
2017-05-01T14:09:41.301Z,1812
2017-05-01T14:10:53.602Z,1804
2017-05-01T14:12:05.910Z,1808
2017-05-01T14:13:18.701Z,1788
2017-05-01T14:14:31.486Z,1808
2017-05-01T14:15:43.791Z,1824
2017-05-01T14:16:56.590Z,1816
2017-05-01T14:18:09.627Z,1788
2017-05-01T14:19:22.429Z,1804
2017-05-01T14:20:34.739Z,1824
2017-05-01T14:21:47.533Z,1780
2017-05-01T14:23:00.094Z,1804
2017-05-01T14:24:12.893Z,1804
2017-05-01T14:25:24.728Z,1796
2017-05-01T14:26:37.044Z,1808
2017-05-01T14:27:49.839Z,1816
2017-05-01T14:29:02.893Z,1800
2017-05-01T14:30:15.213Z,1816
2017-05-01T14:31:28.014Z,1812
2017-05-01T14:32:40.818Z,1784
2017-05-01T14:33:53.138Z,1796
2017-05-01T14:35:05.460Z,1772
2017-05-01T14:36:17.794Z,1780
2017-05-01T14:37:30.599Z,1772
2017-05-01T14:38:43.399Z,1744
2017-05-01T14:40:09.792Z,1744
2017-05-01T14:41:22.118Z,1740
2017-05-01T14:42:34.922Z,1716
2017-05-01T14:43:47.248Z,1676
2017-05-01T14:45:00.058Z,1640
2017-05-01T14:46:12.866Z,1620
2017-05-01T14:47:25.670Z,1592
2017-05-01T14:48:38.477Z,1580
2017-05-01T14:49:51.531Z,1584
2017-05-01T14:51:04.338Z,1580
2017-05-01T14:52:16.662Z,1540
2017-05-01T14:53:29.467Z,1476
2017-05-01T14:54:42.271Z,1432
2017-05-01T14:55:54.592Z,1400
2017-05-01T14:57:06.911Z,1356
2017-05-01T14:58:19.715Z,1380
2017-05-01T14:59:32.517Z,1356
2017-05-01T15:00:45.629Z,1364
2017-05-01T15:01:58.432Z,1352
2017-05-01T15:03:11.231Z,1324
2017-05-01T15:04:23.534Z,1320
2017-05-01T15:05:36.355Z,1304
2017-05-01T15:06:49.443Z,1284
2017-05-01T15:08:02.243Z,1268
2017-05-01T15:09:15.048Z,1252
2017-05-01T15:10:27.371Z,1232
2017-05-01T15:11:40.418Z,1208
2017-05-01T15:12:53.226Z,1184
2017-05-01T15:14:06.025Z,1152
2017-05-01T15:15:18.347Z,1132
2017-05-01T15:16:31.150Z,1104
2017-05-01T15:17:43.956Z,1088
2017-05-01T15:18:56.772Z,1084
2017-05-01T15:20:09.091Z,1068
2017-05-01T15:21:21.430Z,1068
2017-05-01T15:22:34.230Z,1060
2017-05-01T15:23:47.033Z,1044
2017-05-01T15:24:59.832Z,1020
2017-05-01T15:26:12.152Z,1004
2017-05-01T15:27:24.950Z,980
2017-05-01T15:28:37.281Z,964
2017-05-01T15:29:49.600Z,936
2017-05-01T15:31:02.397Z,916
2017-05-01T15:32:14.717Z,896
2017-05-01T15:33:41.591Z,872
2017-05-01T15:34:54.440Z,856
2017-05-01T15:36:07.249Z,824
2017-05-01T15:37:19.567Z,812
2017-05-01T15:38:32.366Z,816
2017-05-01T15:39:44.689Z,808
2017-05-01T15:40:57.494Z,804
2017-05-01T15:42:09.329Z,788
2017-05-01T15:43:21.664Z,772
2017-05-01T15:44:34.723Z,740
2017-05-01T15:45:47.526Z,720
2017-05-01T15:47:00.323Z,728
2017-05-01T15:48:13.138Z,708
2017-05-01T15:49:39.533Z,708
2017-05-01T15:50:52.336Z,692
2017-05-01T15:52:05.145Z,672
2017-05-01T15:53:16.980Z,644
2017-05-01T15:54:29.790Z,660
2017-05-01T15:55:42.107Z,688
2017-05-01T15:56:54.907Z,676
2017-05-01T15:58:06.749Z,640
2017-05-01T15:59:19.074Z,632
2017-05-01T16:00:32.130Z,576
2017-05-01T16:01:44.929Z,572
2017-05-01T16:02:57.724Z,516
2017-05-01T16:04:10.533Z,524
2017-05-01T16:05:23.346Z,500
2017-05-01T16:06:35.666Z,564
2017-05-01T16:07:48.464Z,588
2017-05-01T16:09:01.270Z,620
2017-05-01T16:10:14.075Z,628
2017-05-01T16:11:26.645Z,612
2017-05-01T16:12:38.965Z,604
2017-05-01T16:13:51.794Z,604
2017-05-01T16:15:04.597Z,616
2017-05-01T16:16:16.738Z,604
2017-05-01T16:17:29.538Z,592
2017-05-01T16:18:41.858Z,576
2017-05-01T16:19:54.656Z,580
2017-05-01T16:21:07.460Z,592
2017-05-01T16:22:19.780Z,604
2017-05-01T16:23:32.581Z,616
2017-05-01T16:24:45.386Z,624
2017-05-01T16:25:57.711Z,624
2017-05-01T16:27:09.800Z,616
2017-05-01T16:28:22.605Z,624
2017-05-01T16:29:35.410Z,648
2017-05-01T16:30:47.779Z,680
2017-05-01T16:32:00.104Z,700
2017-05-01T16:33:13.163Z,672
2017-05-01T16:34:25.966Z,640
2017-05-01T16:35:38.282Z,644
2017-05-01T16:36:51.085Z,660
2017-05-01T16:38:03.893Z,664
2017-05-01T16:39:16.220Z,688
2017-05-01T16:40:29.026Z,696
2017-05-01T16:41:41.828Z,688
2017-05-01T16:42:54.637Z,708
2017-05-01T16:44:07.440Z,732
2017-05-01T16:45:18.309Z,732
2017-05-01T16:46:31.113Z,728
2017-05-01T16:47:43.916Z,748
2017-05-01T16:49:10.316Z,812
2017-05-01T16:50:22.160Z,828
2017-05-01T16:51:34.485Z,800
2017-05-01T16:52:47.287Z,800
2017-05-01T16:54:00.338Z,740
2017-05-01T16:55:13.139Z,668
2017-05-01T16:56:25.936Z,608
2017-05-01T16:57:38.737Z,536